createdAt,value
2022-09-11T00:03:56.983Z,71.15
2022-09-11T00:09:03.199Z,79.60
2022-09-11T00:14:06.278Z,69.50
2022-09-11T00:19:12.331Z,57.50
2022-09-11T00:24:16.370Z,68.90
2022-09-11T00:29:19.647Z,63.00
2022-09-11T00:34:22.610Z,58.15
2022-09-11T00:39:29.016Z,57.10
2022-09-11T00:45:01.813Z,52.92
2022-09-11T00:50:12.786Z,49.67
2022-09-11T00:55:19.616Z,53.03
2022-09-11T01:00:23.238Z,47.15
2022-09-11T01:05:29.614Z,49.90
2022-09-11T01:10:45.854Z,53.15
2022-09-11T01:16:03.716Z,53.92
2022-09-11T01:21:25.165Z,57.15
2022-09-11T01:26:57.688Z,58.15
2022-09-11T01:32:09.826Z,59.58
2022-09-11T01:37:18.357Z,57.22
2022-09-11T01:42:24.179Z,59.30
2022-09-11T01:47:30.831Z,56.65
2022-09-11T01:52:38.374Z,64.40
2022-09-11T01:57:46.700Z,60.07
2022-09-11T02:02:59.431Z,55.03
2022-09-11T02:08:07.246Z,62.17
2022-09-11T02:13:15.211Z,57.38
2022-09-11T02:18:24.670Z,63.07
2022-09-11T02:23:28.162Z,59.60
2022-09-11T02:28:31.021Z,62.63
2022-09-11T02:33:37.430Z,59.63
2022-09-11T02:38:52.634Z,63.92
2022-09-11T02:44:05.689Z,58.90
2022-09-11T02:49:23.010Z,57.15
2022-09-11T02:54:35.997Z,62.37
2022-09-11T02:59:44.616Z,60.55
2022-09-11T03:04:49.449Z,52.22
2022-09-11T03:09:52.397Z,54.60
2022-09-11T03:14:58.388Z,53.42
2022-09-11T03:20:03.344Z,58.65
2022-09-11T03:25:07.198Z,53.22
2022-09-11T03:30:12.352Z,53.42
2022-09-11T03:35:16.965Z,53.13
2022-09-11T03:40:21.189Z,56.42
2022-09-11T03:45:24.024Z,52.42
2022-09-11T03:50:28.302Z,45.45
2022-09-11T03:55:31.698Z,43.30
2022-09-11T04:00:36.316Z,42.08
2022-09-11T04:05:40.984Z,39.08
2022-09-11T04:10:43.804Z,36.13
2022-09-11T04:15:46.678Z,35.95
2022-09-11T04:20:50.863Z,40.20
2022-09-11T04:25:54.830Z,43.50
2022-09-11T04:31:05.150Z,41.78
2022-09-11T04:36:14.051Z,39.47
2022-09-11T04:41:17.676Z,29.48
2022-09-11T04:46:20.528Z,32.78
2022-09-11T04:51:29.107Z,32.88
2022-09-11T04:56:35.197Z,36.25
2022-09-11T05:01:38.055Z,40.08
2022-09-11T05:06:45.271Z,39.63
2022-09-11T05:11:50.425Z,33.88
2022-09-11T05:16:55.046Z,31.15
2022-09-11T05:22:01.836Z,31.05
2022-09-11T05:27:06.870Z,26.67
2022-09-11T05:32:09.791Z,27.98
2022-09-11T05:37:14.040Z,28.60
2022-09-11T05:42:22.069Z,30.33
2022-09-11T05:47:28.676Z,27.83
2022-09-11T05:52:34.874Z,21.35
2022-09-11T05:57:38.004Z,19.25
2022-09-11T06:02:41.248Z,19.42
2022-09-11T06:07:45.517Z,18.52
2022-09-11T06:12:48.549Z,16.80
2022-09-11T06:17:51.417Z,14.30
2022-09-11T06:22:56.546Z,12.50
2022-09-11T06:28:00.263Z,13.82
2022-09-11T06:33:03.752Z,11.73
2022-09-11T06:38:08.611Z,12.02
2022-09-11T06:43:12.050Z,10.73
2022-09-11T06:48:15.450Z,9.93
2022-09-11T06:53:20.214Z,9.75
2022-09-11T06:58:29.171Z,14.93
2022-09-11T07:03:33.776Z,9.15
2022-09-11T07:08:40.208Z,12.38
2022-09-11T07:13:43.205Z,11.82
2022-09-11T07:18:47.498Z,10.43
2022-09-11T07:23:59.738Z,11.70
2022-09-11T07:29:08.593Z,11.02
2022-09-11T07:34:11.827Z,9.32
2022-09-11T07:39:16.159Z,8.93
2022-09-11T07:44:37.020Z,9.82
2022-09-11T07:49:40.197Z,8.70
2022-09-11T07:54:45.374Z,8.52
2022-09-11T07:59:49.328Z,7.28
2022-09-11T08:04:53.626Z,9.02
2022-09-11T08:10:16.622Z,8.10
2022-09-11T08:15:22.677Z,6.70
2022-09-11T08:20:25.753Z,6.70
2022-09-11T08:25:30.010Z,5.45
2022-09-11T08:30:38.166Z,5.55
2022-09-11T08:35:41.409Z,6.43
2022-09-11T08:40:46.011Z,5.68
2022-09-11T08:45:51.611Z,5.57
2022-09-11T08:50:54.676Z,5.65
2022-09-11T08:56:05.156Z,4.57
2022-09-11T09:01:21.111Z,6.00
2022-09-11T09:11:57.094Z,5.47
2022-09-11T09:17:06.097Z,4.35
2022-09-11T09:22:18.897Z,5.07
2022-09-11T09:27:32.433Z,4.40
2022-09-11T09:32:41.040Z,3.95
2022-09-11T09:37:45.756Z,4.95
2022-09-11T09:43:19.393Z,3.80
2022-09-11T09:48:23.052Z,5.57
2022-09-11T09:53:33.528Z,2.70
2022-09-11T09:58:43.164Z,3.13
2022-09-11T10:03:46.089Z,4.03
2022-09-11T10:09:00.177Z,2.38
2022-09-11T10:14:49.263Z,3.22
2022-09-11T10:19:45.035Z,4.32
2022-09-11T10:24:53.661Z,3.00
2022-09-11T10:29:59.029Z,3.08
2022-09-11T10:35:02.047Z,2.50
2022-09-11T10:40:09.766Z,3.13
2022-09-11T10:45:17.158Z,2.67
2022-09-11T10:50:26.099Z,3.33
2022-09-11T10:55:33.235Z,1.90
2022-09-11T11:00:38.733Z,2.37
2022-09-11T11:05:52.860Z,2.25
2022-09-11T11:11:14.985Z,2.40
2022-09-11T11:16:27.594Z,2.85
2022-09-11T11:21:44.574Z,4.28
2022-09-11T11:27:00.549Z,4.15
2022-09-11T11:32:21.354Z,2.17
2022-09-11T11:37:36.832Z,2.70
2022-09-11T12:02:24.896Z,4.43
2022-09-11T12:07:31.037Z,2.78
2022-09-11T12:12:36.723Z,2.15
2022-09-11T12:17:43.922Z,6.40
2022-09-11T12:22:51.288Z,2.73
2022-09-11T12:28:10.374Z,3.47
2022-09-11T12:33:55.455Z,2.08
2022-09-11T12:39:00.581Z,1.75
2022-09-11T12:44:05.012Z,1.60
2022-09-11T12:49:22.162Z,2.70
2022-09-11T12:54:28.227Z,2.58
2022-09-11T12:59:34.486Z,3.67
2022-09-11T13:04:38.676Z,3.17
2022-09-11T13:09:50.277Z,3.50
2022-09-11T13:14:56.109Z,2.10
2022-09-11T13:20:26.231Z,2.05
2022-09-11T13:25:31.011Z,1.85
2022-09-11T13:30:34.988Z,1.55
2022-09-11T13:35:40.338Z,1.42
2022-09-11T13:40:47.500Z,1.77
2022-09-11T13:45:50.359Z,2.03
2022-09-11T13:50:54.740Z,2.72
2022-09-11T13:55:57.594Z,1.73
2022-09-11T14:01:11.464Z,2.13
2022-09-11T14:06:19.817Z,2.45
2022-09-11T14:11:26.012Z,1.60
2022-09-11T14:16:33.058Z,1.20
2022-09-11T14:21:39.566Z,3.53
2022-09-11T14:26:42.823Z,3.10
2022-09-11T14:31:45.874Z,1.52
2022-09-11T14:36:57.517Z,1.45
2022-09-11T14:42:02.046Z,1.70
2022-09-11T14:47:04.921Z,1.48
2022-09-11T14:52:14.545Z,1.02
2022-09-11T14:57:20.977Z,3.00
2022-09-11T15:02:25.923Z,2.25
2022-09-11T15:07:30.094Z,1.38
2022-09-11T15:12:32.873Z,1.85
2022-09-11T15:17:36.461Z,1.25
2022-09-11T15:22:40.967Z,2.03
2022-09-11T15:27:43.795Z,1.48
2022-09-11T15:32:46.643Z,2.47
2022-09-11T15:37:51.255Z,3.78
2022-09-11T15:42:57.311Z,1.85
2022-09-11T15:48:00.239Z,2.05
2022-09-11T15:53:04.438Z,1.33
2022-09-11T15:58:07.193Z,2.40
2022-09-11T16:03:09.914Z,2.25
2022-09-11T16:08:15.313Z,2.38
2022-09-11T16:13:19.236Z,2.05
2022-09-11T16:18:22.004Z,1.52
2022-09-11T16:23:26.609Z,2.35
2022-09-11T16:28:29.533Z,3.00
2022-09-11T16:33:33.592Z,2.42
2022-09-11T16:38:39.694Z,3.13
2022-09-11T16:43:44.682Z,2.67
2022-09-11T16:48:51.879Z,2.03
2022-09-11T16:53:58.399Z,2.05
2022-09-11T16:59:01.116Z,1.85
2022-09-11T17:04:04.764Z,2.78
2022-09-11T17:09:08.888Z,1.75
2022-09-11T17:14:12.895Z,2.30
2022-09-11T17:19:15.847Z,1.83
2022-09-11T17:24:21.691Z,3.97
2022-09-11T17:29:24.779Z,2.70
2022-09-11T17:34:27.527Z,3.08
2022-09-11T17:39:31.711Z,1.15
2022-09-11T17:44:34.754Z,2.35
2022-09-11T17:49:37.886Z,2.53
2022-09-11T17:54:42.243Z,2.00
2022-09-11T17:59:45.016Z,2.72
2022-09-11T18:04:49.026Z,1.85
2022-09-11T18:09:56.407Z,2.47
2022-09-11T18:15:00.241Z,3.33
2022-09-11T18:20:04.812Z,2.03
2022-09-11T18:25:10.264Z,2.53
2022-09-11T18:30:13.625Z,2.40
2022-09-11T18:35:17.116Z,2.45
2022-09-11T18:40:21.741Z,2.25
2022-09-11T18:45:25.136Z,4.35
2022-09-11T18:50:28.105Z,2.42
2022-09-11T18:55:33.128Z,3.30
2022-09-11T19:00:36.014Z,4.85
2022-09-11T19:05:38.816Z,2.42
2022-09-11T19:10:44.042Z,2.88
2022-09-11T19:15:55.233Z,2.33
2022-09-11T19:21:00.270Z,2.67
2022-09-11T19:26:11.570Z,2.72
2022-09-11T19:31:16.176Z,2.38
2022-09-11T19:36:21.485Z,4.75
2022-09-11T19:41:27.072Z,3.67
2022-09-11T19:46:31.259Z,3.10
2022-09-11T19:51:36.193Z,4.45
2022-09-11T19:56:42.337Z,4.18
2022-09-11T20:01:45.724Z,3.25
2022-09-11T20:11:51.821Z,3.15
2022-09-11T20:16:54.689Z,5.68
2022-09-11T20:21:57.639Z,4.47
2022-09-11T20:27:02.012Z,4.03
2022-09-11T20:32:05.069Z,6.30
2022-09-11T20:37:10.150Z,3.65
2022-09-11T20:42:14.495Z,8.02
2022-09-11T20:47:17.275Z,6.85
2022-09-11T20:52:20.031Z,6.45
2022-09-11T20:57:24.358Z,8.88
2022-09-11T21:02:27.321Z,7.50
2022-09-11T21:07:30.119Z,5.88
2022-09-11T21:12:34.204Z,7.00
2022-09-11T21:17:37.173Z,7.53
2022-09-11T21:22:39.944Z,9.02
2022-09-11T21:27:44.074Z,5.72
2022-09-11T21:32:46.844Z,7.03
2022-09-11T21:37:49.600Z,5.95
2022-09-11T21:42:53.704Z,6.45
2022-09-11T21:47:56.611Z,7.57
2022-09-11T21:52:59.381Z,9.68
2022-09-11T21:58:03.451Z,9.55
2022-09-11T22:03:06.183Z,7.90
2022-09-11T22:08:08.999Z,7.85
2022-09-11T22:13:13.278Z,8.05
2022-09-11T22:18:16.620Z,10.38
2022-09-11T22:23:21.790Z,9.98
2022-09-11T22:28:26.381Z,8.55
2022-09-11T22:33:29.977Z,8.02
2022-09-11T22:38:32.750Z,7.95
2022-09-11T22:43:37.090Z,8.88
2022-09-11T22:48:39.818Z,8.23
2022-09-11T22:53:43.263Z,8.52
2022-09-11T22:58:47.438Z,7.65
2022-09-11T23:03:50.756Z,7.22
2022-09-11T23:08:54.031Z,8.68
2022-09-11T23:13:58.605Z,8.07
2022-09-11T23:19:03.298Z,9.48
2022-09-11T23:24:07.075Z,8.52
2022-09-11T23:29:11.873Z,11.27
2022-09-11T23:34:16.994Z,9.15
2022-09-11T23:39:19.753Z,9.13
2022-09-11T23:44:23.889Z,10.35
2022-09-11T23:49:26.616Z,10.85
2022-09-11T23:54:29.643Z,9.07
2022-09-11T23:59:36.149Z,10.80
